الصفحة الرئيسية
METAR-TAF:

METAR-TAF

مطار :

هاربين, جمهورية الصين الشعبية

مطار هاربين الدولي

دائرة عرض: 45-45N, خط طول: 126-46E, ارتفاع: 143 متر

مراقبة الطقس الحالي

تاريخ ووقت الإصدار 19 دقيقة قبل الساعة 07:00UTC
ريح 12 عقدة من الغرب
درجة الحرارة -11°درجة مئوية
الرطوبة 61%
ضغط 1015 hPa
الرؤية 10 كم أو أكثر
الغيوم لا تقل 1500 م ولا وجود لمزنة ركامية السحاب الأسود

METAR: ZYHB 190700Z 26006MPS CAVOK M11/M17 Q1015 NOSIG

زمن: 15:19 (07:19 UTC)

توقعات

تاريخ ووقت الإصدار 4ساعات و 16 دقيقة قبل الساعة 03:03UTC
التوقعات صالحة من19 الساعة 06 UTC إلى 20 الساعة 06 UTC
ريح 8 عقدة من الغرب تتزايد حتى 19 عقدة
الرؤية: 6000 متر
غيوم قليلة على ارتفاع 3000 قدم

TAF: ZYHB 190303Z 1906/2006 27004G10MPS 6000 FEW030 TXM08/06Z TNM23/21Z

أرصاد الطقس والتوقعات من أكثر من 4000 مطار (تقارير الطقس للمطار METAR والتنبؤ بالطقس بالمطارTAF).

المحطات المتاحة هي النقط الصفراء والحمراء على الخريطة.

حرك المؤشر فوق النقطة لمعرفة اسم المحطة.

ثم انقر لمعرفة أرصاد وتوقعات الطقس.

لتغيير الخارطة: اضغط على الأزرار الخضراء مع رمز الصليب الأسود للتكبير. على الزر الأخضر مع شرطة للتصغير، أو على الأسهم الخضراء للخرائط المجاورة.


METAR-TAF: